St John River @ Ft Kent, Me

St John River @ Ft Kent, ME
 Total Drainage Area: 5,914 sq. miles 
 Drainage Area Controlled by Corps Dams: 0 sq. miles (0%) 
 Warning Flow/Stage: 109,000 cfs / 23.0 feet 
 Flood Flow/Stage: 128,000 cfs / 25.0 feet 
Date Time
(Eastern)
Stage
(ft)
Flow
(cfs)
CSM
(cfs / sq. mi.)
Feb-26 03:30 am 5.78 7,169 1.2
Feb-26 02:30 am 5.78 7,169 1.2
Feb-26 01:30 am 5.79 7,199 1.2
Feb-26 12:30 am 5.80 7,229 1.2
Feb-25 11:30 pm 5.81 7,259 1.2
Feb-25 10:30 pm 5.83 7,319 1.2
Feb-25 09:30 pm 5.85 7,380 1.3
Feb-25 08:30 pm 5.88 7,471 1.3
Feb-25 07:30 pm 5.91 7,562 1.3
Feb-25 06:30 pm 5.95 7,685 1.3
Feb-25 05:30 pm 6.01 7,872 1.3
Feb-25 04:30 pm 6.05 7,997 1.4
Feb-25 03:30 pm 6.05 7,997 1.4
Feb-25 02:30 pm 6.02 7,903 1.3
Feb-25 01:30 pm 5.96 7,716 1.3
Feb-25 12:30 pm 5.88 7,471 1.3
Feb-25 11:30 am 5.79 7,199 1.2
Feb-25 10:30 am 5.73 7,020 1.2
Feb-25 09:30 am 5.70 6,932 1.2
Feb-25 08:30 am 5.70 6,932 1.2
Feb-25 07:30 am 5.72 6,991 1.2
Feb-25 06:30 am 5.71 6,961 1.2
Feb-25 05:30 am 5.69 6,902 1.2
Feb-25 04:30 am 5.70 6,932 1.2
Feb-25 03:30 am 5.71 6,961 1.2
Report Generated February 26, 2024 03:53 am